Hundvaag 1 weather for Feb 1989
Month no. 20
Obs.
Da.
Temp. Dew Point Precip. Wind
Speed
Wind gusts Cloud cover Press. Humidity Wind dir. Sunny OPT
01.02.1989 5,2   2,0                
02.02.1989 5,8   1,1                
03.02.1989 5,2   13,2                
04.02.1989 6,9   6,6                
05.02.1989 2,2   12,7             1  
06.02.1989 7,7   20,3                
07.02.1989 7,0   9,0                
08.02.1989 3,4   3,1                
09.02.1989 2,6   7,3             1  
10.02.1989 5,5   1,1                
11.02.1989 4,0   2,9                
12.02.1989 4,8   15,9                
13.02.1989 2,9   2,8                
14.02.1989 3,3   21,3             1  
15.02.1989 7,2   23,2                
16.02.1989 1,1   7,9                
17.02.1989 -3,6   3,8                
18.02.1989 3,0   2,0                
19.02.1989 5,3   10,3             1  
20.02.1989 2,6   2,5             1  
21.02.1989 2,3   5,0                
22.02.1989 2,9   2,6                
23.02.1989 2,6   22,0                
24.02.1989 1,0   7,1             1  
25.02.1989 3,2   1,4             1  
26.02.1989 4,7   2,2                
27.02.1989 8,9   2,1                
28.02.1989 3,1   1,5                
                       
                       
                       
Avrg/Sum 4,0   212,9             7